BME weather

Broome International Airport
Broome, Western Australia, Australia

Public forecast

Using degrees Celsius for public forecast. Weather courtesy of forecast.io.

METAR (pilot weather report)

Retrieved 2018/07/19 01:30 UTC (0 seconds ago):

YBRM 190130Z 13006KT CAVOK 25/09 Q1015

TAF (pilot weather forecast)

Retrieved 2018/07/18 23:36 UTC (2 hours ago):

TAF YBRM 182256Z 1823/1924 VRB05KT CAVOK FM190500 27008KT CAVOK FM191000 VRB03KT CAVOK